sensor_id;sensor_type;location;lat;lon;timestamp;P1;durP1;ratioP1;P2;durP2;ratioP2
28627;SDS011;15815;46.760;19.604;2023-12-07T00:02:14;68.80;;;28.10;;
28627;SDS011;15815;46.760;19.604;2023-12-07T00:04:39;62.65;;;26.77;;
28627;SDS011;15815;46.760;19.604;2023-12-07T00:07:05;66.47;;;27.80;;
28627;SDS011;15815;46.760;19.604;2023-12-07T00:09:30;67.03;;;27.15;;
28627;SDS011;15815;46.760;19.604;2023-12-07T00:11:59;62.25;;;26.00;;
28627;SDS011;15815;46.760;19.604;2023-12-07T00:14:24;77.88;;;31.50;;
28627;SDS011;15815;46.760;19.604;2023-12-07T00:16:50;79.38;;;33.53;;
28627;SDS011;15815;46.760;19.604;2023-12-07T00:19:15;78.68;;;31.27;;
28627;SDS011;15815;46.760;19.604;2023-12-07T00:21:41;58.60;;;26.33;;
28627;SDS011;15815;46.760;19.604;2023-12-07T00:24:06;57.78;;;25.50;;
28627;SDS011;15815;46.760;19.604;2023-12-07T00:26:32;51.17;;;21.73;;
28627;SDS011;15815;46.760;19.604;2023-12-07T00:28:58;55.55;;;23.05;;
28627;SDS011;15815;46.760;19.604;2023-12-07T00:31:24;44.70;;;20.85;;
28627;SDS011;15815;46.760;19.604;2023-12-07T00:33:50;48.20;;;22.25;;
28627;SDS011;15815;46.760;19.604;2023-12-07T00:36:16;46.30;;;20.60;;
28627;SDS011;15815;46.760;19.604;2023-12-07T00:38:41;46.85;;;20.67;;
28627;SDS011;15815;46.760;19.604;2023-12-07T00:41:07;48.13;;;21.83;;
28627;SDS011;15815;46.760;19.604;2023-12-07T00:43:32;45.45;;;20.67;;
28627;SDS011;15815;46.760;19.604;2023-12-07T00:45:58;38.35;;;17.98;;
28627;SDS011;15815;46.760;19.604;2023-12-07T00:48:23;39.42;;;18.80;;
28627;SDS011;15815;46.760;19.604;2023-12-07T00:50:49;41.15;;;18.95;;
28627;SDS011;15815;46.760;19.604;2023-12-07T00:53:14;42.13;;;19.58;;
28627;SDS011;15815;46.760;19.604;2023-12-07T00:55:40;43.97;;;19.33;;
28627;SDS011;15815;46.760;19.604;2023-12-07T00:58:05;45.35;;;19.00;;
28627;SDS011;15815;46.760;19.604;2023-12-07T01:00:31;40.53;;;17.25;;
28627;SDS011;15815;46.760;19.604;2023-12-07T01:02:56;40.10;;;17.02;;
28627;SDS011;15815;46.760;19.604;2023-12-07T01:05:22;35.17;;;16.35;;
28627;SDS011;15815;46.760;19.604;2023-12-07T01:07:47;40.88;;;16.70;;
28627;SDS011;15815;46.760;19.604;2023-12-07T01:10:14;35.67;;;17.35;;
28627;SDS011;15815;46.760;19.604;2023-12-07T01:12:40;35.08;;;17.13;;
28627;SDS011;15815;46.760;19.604;2023-12-07T01:15:06;38.42;;;17.05;;
28627;SDS011;15815;46.760;19.604;2023-12-07T01:17:31;43.67;;;17.52;;
28627;SDS011;15815;46.760;19.604;2023-12-07T01:19:57;43.25;;;17.00;;
28627;SDS011;15815;46.760;19.604;2023-12-07T01:22:22;52.33;;;18.05;;
28627;SDS011;15815;46.760;19.604;2023-12-07T01:24:48;47.15;;;18.50;;
28627;SDS011;15815;46.760;19.604;2023-12-07T01:27:14;37.90;;;16.60;;
28627;SDS011;15815;46.760;19.604;2023-12-07T01:29:39;44.55;;;18.17;;
28627;SDS011;15815;46.760;19.604;2023-12-07T01:32:05;47.92;;;18.83;;
28627;SDS011;15815;46.760;19.604;2023-12-07T01:34:31;44.58;;;17.50;;
28627;SDS011;15815;46.760;19.604;2023-12-07T01:36:56;45.40;;;19.25;;
28627;SDS011;15815;46.760;19.604;2023-12-07T01:39:22;46.47;;;19.05;;
28627;SDS011;15815;46.760;19.604;2023-12-07T01:41:47;49.25;;;18.52;;
28627;SDS011;15815;46.760;19.604;2023-12-07T01:44:13;52.03;;;20.40;;
28627;SDS011;15815;46.760;19.604;2023-12-07T01:46:38;44.42;;;17.48;;
28627;SDS011;15815;46.760;19.604;2023-12-07T01:49:04;57.85;;;19.80;;
28627;SDS011;15815;46.760;19.604;2023-12-07T01:51:30;61.15;;;20.40;;
28627;SDS011;15815;46.760;19.604;2023-12-07T01:53:58;47.70;;;19.13;;
28627;SDS011;15815;46.760;19.604;2023-12-07T01:56:25;53.50;;;20.98;;
28627;SDS011;15815;46.760;19.604;2023-12-07T01:58:51;49.97;;;20.73;;
28627;SDS011;15815;46.760;19.604;2023-12-07T02:01:17;47.95;;;20.23;;
28627;SDS011;15815;46.760;19.604;2023-12-07T02:03:44;48.55;;;20.92;;
28627;SDS011;15815;46.760;19.604;2023-12-07T02:06:09;65.03;;;21.15;;
28627;SDS011;15815;46.760;19.604;2023-12-07T02:08:36;56.45;;;22.27;;
28627;SDS011;15815;46.760;19.604;2023-12-07T02:11:04;62.53;;;21.95;;
28627;SDS011;15815;46.760;19.604;2023-12-07T02:13:31;49.00;;;20.10;;
28627;SDS011;15815;46.760;19.604;2023-12-07T02:15:56;55.72;;;22.05;;
28627;SDS011;15815;46.760;19.604;2023-12-07T02:18:28;55.78;;;22.95;;
28627;SDS011;15815;46.760;19.604;2023-12-07T02:23:53;56.08;;;20.05;;
28627;SDS011;15815;46.760;19.604;2023-12-07T02:26:20;51.85;;;20.73;;
28627;SDS011;15815;46.760;19.604;2023-12-07T02:28:47;49.92;;;20.08;;
28627;SDS011;15815;46.760;19.604;2023-12-07T02:31:13;47.55;;;19.38;;
28627;SDS011;15815;46.760;19.604;2023-12-07T02:33:38;48.00;;;18.52;;
28627;SDS011;15815;46.760;19.604;2023-12-07T02:36:04;51.90;;;19.48;;
28627;SDS011;15815;46.760;19.604;2023-12-07T02:38:33;48.03;;;19.10;;
28627;SDS011;15815;46.760;19.604;2023-12-07T02:41:01;49.40;;;19.40;;
28627;SDS011;15815;46.760;19.604;2023-12-07T02:43:28;39.75;;;16.80;;
28627;SDS011;15815;46.760;19.604;2023-12-07T02:45:54;38.53;;;16.58;;
28627;SDS011;15815;46.760;19.604;2023-12-07T02:48:20;40.63;;;16.50;;
28627;SDS011;15815;46.760;19.604;2023-12-07T02:50:46;44.25;;;17.83;;
28627;SDS011;15815;46.760;19.604;2023-12-07T02:53:12;45.35;;;17.15;;
28627;SDS011;15815;46.760;19.604;2023-12-07T02:55:37;43.50;;;15.80;;
28627;SDS011;15815;46.760;19.604;2023-12-07T02:58:03;41.10;;;16.25;;
28627;SDS011;15815;46.760;19.604;2023-12-07T03:00:29;38.25;;;15.30;;
28627;SDS011;15815;46.760;19.604;2023-12-07T03:02:55;43.15;;;15.50;;
28627;SDS011;15815;46.760;19.604;2023-12-07T03:05:20;34.75;;;14.98;;
28627;SDS011;15815;46.760;19.604;2023-12-07T03:07:45;33.20;;;14.02;;
28627;SDS011;15815;46.760;19.604;2023-12-07T03:10:11;35.42;;;14.52;;
28627;SDS011;15815;46.760;19.604;2023-12-07T03:12:37;31.95;;;12.82;;
28627;SDS011;15815;46.760;19.604;2023-12-07T03:15:03;37.35;;;14.38;;
28627;SDS011;15815;46.760;19.604;2023-12-07T03:17:28;37.33;;;15.27;;
28627;SDS011;15815;46.760;19.604;2023-12-07T03:19:54;39.05;;;15.00;;
28627;SDS011;15815;46.760;19.604;2023-12-07T03:22:20;34.38;;;14.38;;
28627;SDS011;15815;46.760;19.604;2023-12-07T03:24:46;36.97;;;13.00;;
28627;SDS011;15815;46.760;19.604;2023-12-07T03:27:16;32.72;;;12.80;;
28627;SDS011;15815;46.760;19.604;2023-12-07T03:29:42;31.70;;;12.93;;
28627;SDS011;15815;46.760;19.604;2023-12-07T03:32:07;30.45;;;12.90;;
28627;SDS011;15815;46.760;19.604;2023-12-07T03:34:33;31.75;;;12.88;;
28627;SDS011;15815;46.760;19.604;2023-12-07T03:36:58;30.08;;;12.85;;
28627;SDS011;15815;46.760;19.604;2023-12-07T03:39:24;25.35;;;11.98;;
28627;SDS011;15815;46.760;19.604;2023-12-07T03:41:49;30.42;;;12.85;;
28627;SDS011;15815;46.760;19.604;2023-12-07T03:44:15;33.88;;;12.82;;
28627;SDS011;15815;46.760;19.604;2023-12-07T03:46:41;33.70;;;13.07;;
28627;SDS011;15815;46.760;19.604;2023-12-07T03:49:06;29.33;;;12.10;;
28627;SDS011;15815;46.760;19.604;2023-12-07T03:51:32;29.88;;;11.38;;
28627;SDS011;15815;46.760;19.604;2023-12-07T03:53:57;36.65;;;13.90;;
28627;SDS011;15815;46.760;19.604;2023-12-07T03:56:24;34.92;;;13.20;;
28627;SDS011;15815;46.760;19.604;2023-12-07T03:58:53;26.13;;;10.95;;
28627;SDS011;15815;46.760;19.604;2023-12-07T04:01:22;28.48;;;13.00;;
28627;SDS011;15815;46.760;19.604;2023-12-07T04:03:51;30.85;;;13.35;;
28627;SDS011;15815;46.760;19.604;2023-12-07T04:06:18;30.63;;;13.35;;
28627;SDS011;15815;46.760;19.604;2023-12-07T04:08:44;25.65;;;11.60;;
28627;SDS011;15815;46.760;19.604;2023-12-07T04:11:11;24.67;;;11.48;;
28627;SDS011;15815;46.760;19.604;2023-12-07T04:13:40;26.95;;;12.23;;
28627;SDS011;15815;46.760;19.604;2023-12-07T04:16:06;25.70;;;11.48;;
28627;SDS011;15815;46.760;19.604;2023-12-07T04:18:35;29.70;;;12.68;;
28627;SDS011;15815;46.760;19.604;2023-12-07T04:21:01;28.42;;;11.88;;
28627;SDS011;15815;46.760;19.604;2023-12-07T04:23:27;29.00;;;12.43;;
28627;SDS011;15815;46.760;19.604;2023-12-07T04:25:52;27.92;;;12.20;;
28627;SDS011;15815;46.760;19.604;2023-12-07T04:28:18;35.58;;;13.20;;
28627;SDS011;15815;46.760;19.604;2023-12-07T04:30:43;37.78;;;13.23;;
28627;SDS011;15815;46.760;19.604;2023-12-07T04:33:09;44.03;;;15.60;;
28627;SDS011;15815;46.760;19.604;2023-12-07T04:35:35;35.70;;;14.38;;
28627;SDS011;15815;46.760;19.604;2023-12-07T04:38:00;38.67;;;17.65;;
28627;SDS011;15815;46.760;19.604;2023-12-07T04:40:26;42.08;;;16.80;;
28627;SDS011;15815;46.760;19.604;2023-12-07T04:42:52;40.08;;;17.30;;
28627;SDS011;15815;46.760;19.604;2023-12-07T04:45:18;39.25;;;16.83;;
28627;SDS011;15815;46.760;19.604;2023-12-07T04:47:43;38.47;;;16.25;;
28627;SDS011;15815;46.760;19.604;2023-12-07T04:50:09;35.30;;;16.70;;
28627;SDS011;15815;46.760;19.604;2023-12-07T04:52:36;30.02;;;13.45;;
28627;SDS011;15815;46.760;19.604;2023-12-07T04:55:01;26.17;;;11.73;;
28627;SDS011;15815;46.760;19.604;2023-12-07T04:57:27;25.27;;;11.85;;
28627;SDS011;15815;46.760;19.604;2023-12-07T04:59:52;27.00;;;11.77;;
28627;SDS011;15815;46.760;19.604;2023-12-07T05:02:18;25.92;;;11.70;;
28627;SDS011;15815;46.760;19.604;2023-12-07T05:04:44;24.63;;;10.98;;
28627;SDS011;15815;46.760;19.604;2023-12-07T05:07:09;21.00;;;10.00;;
28627;SDS011;15815;46.760;19.604;2023-12-07T05:09:35;22.13;;;10.30;;
28627;SDS011;15815;46.760;19.604;2023-12-07T05:12:00;26.42;;;11.40;;
28627;SDS011;15815;46.760;19.604;2023-12-07T05:14:26;27.55;;;11.85;;
28627;SDS011;15815;46.760;19.604;2023-12-07T05:16:51;36.30;;;14.93;;
28627;SDS011;15815;46.760;19.604;2023-12-07T05:19:17;34.10;;;13.60;;
28627;SDS011;15815;46.760;19.604;2023-12-07T05:21:44;42.80;;;16.23;;
28627;SDS011;15815;46.760;19.604;2023-12-07T05:24:09;44.95;;;17.25;;
28627;SDS011;15815;46.760;19.604;2023-12-07T05:26:35;59.90;;;19.20;;
28627;SDS011;15815;46.760;19.604;2023-12-07T05:29:01;54.70;;;21.67;;
28627;SDS011;15815;46.760;19.604;2023-12-07T05:31:27;54.78;;;21.38;;
28627;SDS011;15815;46.760;19.604;2023-12-07T05:33:52;39.22;;;16.75;;
28627;SDS011;15815;46.760;19.604;2023-12-07T05:36:18;36.42;;;13.68;;
28627;SDS011;15815;46.760;19.604;2023-12-07T05:41:26;30.55;;;12.55;;
28627;SDS011;15815;46.760;19.604;2023-12-07T05:43:51;33.03;;;12.98;;
28627;SDS011;15815;46.760;19.604;2023-12-07T05:46:20;28.15;;;12.90;;
28627;SDS011;15815;46.760;19.604;2023-12-07T05:48:46;35.03;;;14.52;;
28627;SDS011;15815;46.760;19.604;2023-12-07T05:51:15;34.45;;;15.60;;
28627;SDS011;15815;46.760;19.604;2023-12-07T05:53:42;47.67;;;20.60;;
28627;SDS011;15815;46.760;19.604;2023-12-07T05:56:08;38.30;;;17.52;;
28627;SDS011;15815;46.760;19.604;2023-12-07T05:58:34;31.17;;;14.98;;
28627;SDS011;15815;46.760;19.604;2023-12-07T06:01:00;32.17;;;15.48;;
28627;SDS011;15815;46.760;19.604;2023-12-07T06:03:26;30.92;;;16.65;;
28627;SDS011;15815;46.760;19.604;2023-12-07T06:05:51;22.58;;;12.88;;
28627;SDS011;15815;46.760;19.604;2023-12-07T06:08:17;29.45;;;14.32;;
28627;SDS011;15815;46.760;19.604;2023-12-07T06:10:46;24.75;;;12.52;;
28627;SDS011;15815;46.760;19.604;2023-12-07T06:13:11;22.83;;;11.70;;
28627;SDS011;15815;46.760;19.604;2023-12-07T06:15:38;21.05;;;10.63;;
28627;SDS011;15815;46.760;19.604;2023-12-07T06:18:03;21.30;;;10.80;;
28627;SDS011;15815;46.760;19.604;2023-12-07T06:20:29;19.85;;;10.70;;
28627;SDS011;15815;46.760;19.604;2023-12-07T06:22:54;19.02;;;9.82;;
28627;SDS011;15815;46.760;19.604;2023-12-07T06:25:20;20.65;;;10.73;;
28627;SDS011;15815;46.760;19.604;2023-12-07T06:27:45;24.35;;;11.95;;
28627;SDS011;15815;46.760;19.604;2023-12-07T06:30:11;23.55;;;12.95;;
28627;SDS011;15815;46.760;19.604;2023-12-07T06:32:38;21.40;;;11.55;;
28627;SDS011;15815;46.760;19.604;2023-12-07T06:35:03;23.10;;;12.02;;
28627;SDS011;15815;46.760;19.604;2023-12-07T06:37:29;20.10;;;11.05;;
28627;SDS011;15815;46.760;19.604;2023-12-07T06:39:58;21.05;;;10.45;;
28627;SDS011;15815;46.760;19.604;2023-12-07T06:42:23;16.45;;;9.32;;
28627;SDS011;15815;46.760;19.604;2023-12-07T06:44:49;17.23;;;9.35;;
28627;SDS011;15815;46.760;19.604;2023-12-07T06:47:16;18.90;;;11.48;;
28627;SDS011;15815;46.760;19.604;2023-12-07T06:49:41;18.30;;;10.43;;
28627;SDS011;15815;46.760;19.604;2023-12-07T06:52:07;17.13;;;9.70;;
28627;SDS011;15815;46.760;19.604;2023-12-07T06:54:33;15.48;;;8.63;;
28627;SDS011;15815;46.760;19.604;2023-12-07T06:56:59;13.95;;;8.40;;
28627;SDS011;15815;46.760;19.604;2023-12-07T06:59:25;12.88;;;8.18;;
28627;SDS011;15815;46.760;19.604;2023-12-07T07:01:51;16.08;;;8.68;;
28627;SDS011;15815;46.760;19.604;2023-12-07T07:04:16;18.83;;;7.47;;
28627;SDS011;15815;46.760;19.604;2023-12-07T07:06:43;14.88;;;8.45;;
28627;SDS011;15815;46.760;19.604;2023-12-07T07:11:55;15.25;;;8.20;;
28627;SDS011;15815;46.760;19.604;2023-12-07T07:14:21;12.65;;;7.55;;
28627;SDS011;15815;46.760;19.604;2023-12-07T07:16:46;14.77;;;8.68;;
28627;SDS011;15815;46.760;19.604;2023-12-07T07:19:13;16.48;;;8.48;;
28627;SDS011;15815;46.760;19.604;2023-12-07T07:21:40;16.08;;;8.20;;
28627;SDS011;15815;46.760;19.604;2023-12-07T07:24:05;17.52;;;8.18;;
28627;SDS011;15815;46.760;19.604;2023-12-07T07:26:31;14.30;;;7.70;;
28627;SDS011;15815;46.760;19.604;2023-12-07T07:28:56;16.85;;;8.40;;
28627;SDS011;15815;46.760;19.604;2023-12-07T07:31:22;14.23;;;8.00;;
28627;SDS011;15815;46.760;19.604;2023-12-07T07:33:47;15.60;;;7.95;;
28627;SDS011;15815;46.760;19.604;2023-12-07T07:36:13;19.70;;;9.18;;
28627;SDS011;15815;46.760;19.604;2023-12-07T07:38:42;21.52;;;9.23;;
28627;SDS011;15815;46.760;19.604;2023-12-07T07:41:08;17.60;;;9.63;;
28627;SDS011;15815;46.760;19.604;2023-12-07T07:43:33;19.10;;;8.02;;
28627;SDS011;15815;46.760;19.604;2023-12-07T07:45:59;14.50;;;8.60;;
28627;SDS011;15815;46.760;19.604;2023-12-07T07:48:24;19.33;;;8.85;;
28627;SDS011;15815;46.760;19.604;2023-12-07T07:50:50;19.40;;;9.13;;
28627;SDS011;15815;46.760;19.604;2023-12-07T07:53:15;19.40;;;8.93;;
28627;SDS011;15815;46.760;19.604;2023-12-07T07:55:41;17.55;;;8.85;;
28627;SDS011;15815;46.760;19.604;2023-12-07T07:58:06;16.30;;;8.55;;
28627;SDS011;15815;46.760;19.604;2023-12-07T08:00:32;16.52;;;8.75;;
28627;SDS011;15815;46.760;19.604;2023-12-07T08:02:57;18.98;;;10.25;;
28627;SDS011;15815;46.760;19.604;2023-12-07T08:05:23;17.92;;;8.75;;
28627;SDS011;15815;46.760;19.604;2023-12-07T08:07:48;15.73;;;8.63;;
28627;SDS011;15815;46.760;19.604;2023-12-07T08:10:14;15.82;;;8.00;;
28627;SDS011;15815;46.760;19.604;2023-12-07T08:12:39;15.50;;;8.82;;
28627;SDS011;15815;46.760;19.604;2023-12-07T08:15:05;16.52;;;8.82;;
28627;SDS011;15815;46.760;19.604;2023-12-07T08:17:34;15.75;;;8.70;;
28627;SDS011;15815;46.760;19.604;2023-12-07T08:19:59;21.02;;;10.23;;
28627;SDS011;15815;46.760;19.604;2023-12-07T08:22:25;18.23;;;9.70;;
28627;SDS011;15815;46.760;19.604;2023-12-07T08:24:50;23.20;;;10.90;;
28627;SDS011;15815;46.760;19.604;2023-12-07T08:27:16;21.15;;;11.05;;
28627;SDS011;15815;46.760;19.604;2023-12-07T08:29:41;22.48;;;12.40;;
28627;SDS011;15815;46.760;19.604;2023-12-07T08:32:07;22.80;;;11.40;;
28627;SDS011;15815;46.760;19.604;2023-12-07T08:34:32;22.08;;;10.93;;
28627;SDS011;15815;46.760;19.604;2023-12-07T08:37:03;17.92;;;9.13;;
28627;SDS011;15815;46.760;19.604;2023-12-07T08:39:29;14.65;;;8.02;;
28627;SDS011;15815;46.760;19.604;2023-12-07T08:41:54;15.38;;;8.20;;
28627;SDS011;15815;46.760;19.604;2023-12-07T08:44:21;17.48;;;9.30;;
28627;SDS011;15815;46.760;19.604;2023-12-07T08:46:46;17.13;;;8.00;;
28627;SDS011;15815;46.760;19.604;2023-12-07T08:49:12;16.13;;;8.80;;
28627;SDS011;15815;46.760;19.604;2023-12-07T08:51:37;12.55;;;7.90;;
28627;SDS011;15815;46.760;19.604;2023-12-07T08:54:03;13.95;;;8.15;;
28627;SDS011;15815;46.760;19.604;2023-12-07T08:56:28;14.02;;;7.53;;
28627;SDS011;15815;46.760;19.604;2023-12-07T08:58:54;14.50;;;8.15;;
28627;SDS011;15815;46.760;19.604;2023-12-07T09:01:19;15.13;;;7.95;;
28627;SDS011;15815;46.760;19.604;2023-12-07T09:03:45;14.48;;;7.53;;
28627;SDS011;15815;46.760;19.604;2023-12-07T09:06:10;15.60;;;8.30;;
28627;SDS011;15815;46.760;19.604;2023-12-07T09:08:36;17.25;;;8.45;;
28627;SDS011;15815;46.760;19.604;2023-12-07T09:11:01;13.40;;;8.27;;
28627;SDS011;15815;46.760;19.604;2023-12-07T09:13:30;14.40;;;7.95;;
28627;SDS011;15815;46.760;19.604;2023-12-07T09:15:55;14.68;;;8.45;;
28627;SDS011;15815;46.760;19.604;2023-12-07T09:18:21;13.80;;;8.50;;
28627;SDS011;15815;46.760;19.604;2023-12-07T09:20:46;16.77;;;8.85;;
28627;SDS011;15815;46.760;19.604;2023-12-07T09:23:12;14.23;;;7.47;;
28627;SDS011;15815;46.760;19.604;2023-12-07T09:25:38;13.63;;;7.63;;
28627;SDS011;15815;46.760;19.604;2023-12-07T09:28:04;12.48;;;7.72;;
28627;SDS011;15815;46.760;19.604;2023-12-07T09:30:33;12.85;;;7.53;;
28627;SDS011;15815;46.760;19.604;2023-12-07T09:32:59;12.65;;;7.57;;
28627;SDS011;15815;46.760;19.604;2023-12-07T09:35:26;11.20;;;7.03;;
28627;SDS011;15815;46.760;19.604;2023-12-07T09:37:52;13.82;;;8.18;;
28627;SDS011;15815;46.760;19.604;2023-12-07T09:40:17;12.80;;;7.07;;
28627;SDS011;15815;46.760;19.604;2023-12-07T09:42:45;11.60;;;7.18;;
28627;SDS011;15815;46.760;19.604;2023-12-07T09:45:11;12.57;;;7.53;;
28627;SDS011;15815;46.760;19.604;2023-12-07T09:47:37;11.45;;;7.35;;
28627;SDS011;15815;46.760;19.604;2023-12-07T09:50:05;15.98;;;8.30;;
28627;SDS011;15815;46.760;19.604;2023-12-07T09:52:32;13.32;;;8.05;;
28627;SDS011;15815;46.760;19.604;2023-12-07T09:54:57;14.68;;;8.05;;
28627;SDS011;15815;46.760;19.604;2023-12-07T09:57:24;11.80;;;7.35;;
28627;SDS011;15815;46.760;19.604;2023-12-07T09:59:50;10.60;;;6.57;;
28627;SDS011;15815;46.760;19.604;2023-12-07T10:02:15;9.98;;;6.63;;
28627;SDS011;15815;46.760;19.604;2023-12-07T10:04:41;11.45;;;7.00;;
28627;SDS011;15815;46.760;19.604;2023-12-07T10:07:06;9.70;;;6.30;;
28627;SDS011;15815;46.760;19.604;2023-12-07T10:09:33;10.57;;;6.57;;
28627;SDS011;15815;46.760;19.604;2023-12-07T10:12:02;9.38;;;5.93;;
28627;SDS011;15815;46.760;19.604;2023-12-07T10:14:31;10.05;;;6.32;;
28627;SDS011;15815;46.760;19.604;2023-12-07T10:16:57;10.23;;;6.18;;
28627;SDS011;15815;46.760;19.604;2023-12-07T10:19:22;14.00;;;8.88;;
28627;SDS011;15815;46.760;19.604;2023-12-07T10:21:49;19.67;;;11.38;;
28627;SDS011;15815;46.760;19.604;2023-12-07T10:24:18;13.68;;;10.25;;
28627;SDS011;15815;46.760;19.604;2023-12-07T10:26:44;12.35;;;7.90;;
28627;SDS011;15815;46.760;19.604;2023-12-07T10:29:11;9.88;;;6.55;;
28627;SDS011;15815;46.760;19.604;2023-12-07T10:31:37;8.77;;;6.07;;
28627;SDS011;15815;46.760;19.604;2023-12-07T10:34:02;9.32;;;6.30;;
28627;SDS011;15815;46.760;19.604;2023-12-07T10:36:29;8.75;;;5.82;;
28627;SDS011;15815;46.760;19.604;2023-12-07T10:38:55;9.70;;;6.82;;
28627;SDS011;15815;46.760;19.604;2023-12-07T10:41:21;7.82;;;5.82;;
28627;SDS011;15815;46.760;19.604;2023-12-07T10:43:51;7.93;;;5.75;;
28627;SDS011;15815;46.760;19.604;2023-12-07T10:46:19;8.52;;;5.60;;
28627;SDS011;15815;46.760;19.604;2023-12-07T10:48:47;10.75;;;6.38;;
28627;SDS011;15815;46.760;19.604;2023-12-07T10:51:17;10.27;;;6.38;;
28627;SDS011;15815;46.760;19.604;2023-12-07T10:53:49;13.25;;;7.07;;
28627;SDS011;15815;46.760;19.604;2023-12-07T10:56:18;23.58;;;11.50;;
28627;SDS011;15815;46.760;19.604;2023-12-07T10:58:54;19.63;;;10.35;;
28627;SDS011;15815;46.760;19.604;2023-12-07T11:01:21;16.13;;;9.98;;
28627;SDS011;15815;46.760;19.604;2023-12-07T11:03:51;16.48;;;9.57;;
28627;SDS011;15815;46.760;19.604;2023-12-07T11:06:21;12.80;;;7.72;;
28627;SDS011;15815;46.760;19.604;2023-12-07T11:08:50;10.13;;;6.45;;
28627;SDS011;15815;46.760;19.604;2023-12-07T11:14:09;9.10;;;6.65;;
28627;SDS011;15815;46.760;19.604;2023-12-07T11:16:36;11.25;;;6.60;;
28627;SDS011;15815;46.760;19.604;2023-12-07T11:19:02;8.65;;;5.85;;
28627;SDS011;15815;46.760;19.604;2023-12-07T11:21:28;8.90;;;6.55;;
28627;SDS011;15815;46.760;19.604;2023-12-07T11:23:54;10.93;;;6.88;;
28627;SDS011;15815;46.760;19.604;2023-12-07T11:26:24;12.90;;;6.72;;
28627;SDS011;15815;46.760;19.604;2023-12-07T11:28:50;13.38;;;7.72;;
28627;SDS011;15815;46.760;19.604;2023-12-07T11:31:16;22.85;;;11.02;;
28627;SDS011;15815;46.760;19.604;2023-12-07T11:33:42;23.05;;;12.77;;
28627;SDS011;15815;46.760;19.604;2023-12-07T11:36:08;20.60;;;10.05;;
28627;SDS011;15815;46.760;19.604;2023-12-07T11:38:39;20.60;;;10.65;;
28627;SDS011;15815;46.760;19.604;2023-12-07T11:41:29;12.57;;;8.55;;
28627;SDS011;15815;46.760;19.604;2023-12-07T11:43:58;9.13;;;6.50;;
28627;SDS011;15815;46.760;19.604;2023-12-07T11:46:23;9.88;;;7.20;;
28627;SDS011;15815;46.760;19.604;2023-12-07T11:48:49;11.32;;;8.23;;
28627;SDS011;15815;46.760;19.604;2023-12-07T11:51:15;12.40;;;8.25;;
28627;SDS011;15815;46.760;19.604;2023-12-07T11:53:41;24.13;;;12.77;;
28627;SDS011;15815;46.760;19.604;2023-12-07T11:56:08;14.77;;;10.88;;
28627;SDS011;15815;46.760;19.604;2023-12-07T11:58:34;13.27;;;9.60;;
28627;SDS011;15815;46.760;19.604;2023-12-07T12:01:01;13.35;;;10.38;;
28627;SDS011;15815;46.760;19.604;2023-12-07T12:03:27;18.88;;;10.63;;
28627;SDS011;15815;46.760;19.604;2023-12-07T12:05:55;17.25;;;10.95;;
28627;SDS011;15815;46.760;19.604;2023-12-07T12:08:21;13.85;;;9.05;;
28627;SDS011;15815;46.760;19.604;2023-12-07T12:10:47;11.75;;;8.40;;
28627;SDS011;15815;46.760;19.604;2023-12-07T12:13:14;11.23;;;7.60;;
28627;SDS011;15815;46.760;19.604;2023-12-07T12:18:16;10.77;;;7.18;;
28627;SDS011;15815;46.760;19.604;2023-12-07T12:20:41;11.98;;;7.55;;
28627;SDS011;15815;46.760;19.604;2023-12-07T12:23:10;9.55;;;6.75;;
28627;SDS011;15815;46.760;19.604;2023-12-07T12:25:35;11.60;;;7.68;;
28627;SDS011;15815;46.760;19.604;2023-12-07T12:28:02;10.02;;;7.07;;
28627;SDS011;15815;46.760;19.604;2023-12-07T12:30:29;12.55;;;7.68;;
28627;SDS011;15815;46.760;19.604;2023-12-07T12:32:57;14.40;;;8.95;;
28627;SDS011;15815;46.760;19.604;2023-12-07T12:35:23;14.95;;;9.20;;
28627;SDS011;15815;46.760;19.604;2023-12-07T12:37:49;13.02;;;8.23;;
28627;SDS011;15815;46.760;19.604;2023-12-07T12:40:18;16.00;;;9.25;;
28627;SDS011;15815;46.760;19.604;2023-12-07T12:42:47;28.15;;;13.45;;
28627;SDS011;15815;46.760;19.604;2023-12-07T12:45:14;21.48;;;12.88;;
28627;SDS011;15815;46.760;19.604;2023-12-07T12:47:40;17.63;;;10.38;;
28627;SDS011;15815;46.760;19.604;2023-12-07T12:50:06;12.65;;;9.05;;
28627;SDS011;15815;46.760;19.604;2023-12-07T12:52:32;15.25;;;9.07;;
28627;SDS011;15815;46.760;19.604;2023-12-07T12:54:58;15.90;;;9.40;;
28627;SDS011;15815;46.760;19.604;2023-12-07T12:57:24;15.77;;;9.30;;
28627;SDS011;15815;46.760;19.604;2023-12-07T12:59:50;12.38;;;8.63;;
28627;SDS011;15815;46.760;19.604;2023-12-07T13:02:16;14.98;;;8.93;;
28627;SDS011;15815;46.760;19.604;2023-12-07T13:04:42;12.57;;;8.20;;
28627;SDS011;15815;46.760;19.604;2023-12-07T13:07:07;14.55;;;8.88;;
28627;SDS011;15815;46.760;19.604;2023-12-07T13:09:33;13.95;;;8.60;;
28627;SDS011;15815;46.760;19.604;2023-12-07T13:11:59;12.70;;;7.72;;
28627;SDS011;15815;46.760;19.604;2023-12-07T13:14:24;14.30;;;9.05;;
28627;SDS011;15815;46.760;19.604;2023-12-07T13:16:50;17.05;;;9.13;;
28627;SDS011;15815;46.760;19.604;2023-12-07T13:19:15;20.02;;;12.27;;
28627;SDS011;15815;46.760;19.604;2023-12-07T13:21:41;18.35;;;10.95;;
28627;SDS011;15815;46.760;19.604;2023-12-07T13:24:06;16.98;;;10.25;;
28627;SDS011;15815;46.760;19.604;2023-12-07T13:26:32;15.10;;;8.57;;
28627;SDS011;15815;46.760;19.604;2023-12-07T13:28:57;13.07;;;8.82;;
28627;SDS011;15815;46.760;19.604;2023-12-07T13:31:23;13.15;;;8.45;;
28627;SDS011;15815;46.760;19.604;2023-12-07T13:33:50;11.90;;;7.95;;
28627;SDS011;15815;46.760;19.604;2023-12-07T13:36:16;14.77;;;8.88;;
28627;SDS011;15815;46.760;19.604;2023-12-07T13:38:41;14.63;;;8.93;;
28627;SDS011;15815;46.760;19.604;2023-12-07T13:41:08;17.85;;;8.93;;
28627;SDS011;15815;46.760;19.604;2023-12-07T13:43:33;16.63;;;9.30;;
28627;SDS011;15815;46.760;19.604;2023-12-07T13:45:59;15.82;;;9.60;;
28627;SDS011;15815;46.760;19.604;2023-12-07T13:48:24;13.75;;;8.05;;
28627;SDS011;15815;46.760;19.604;2023-12-07T13:50:50;15.73;;;9.25;;
28627;SDS011;15815;46.760;19.604;2023-12-07T13:53:16;17.33;;;9.55;;
28627;SDS011;15815;46.760;19.604;2023-12-07T13:55:41;14.30;;;8.32;;
28627;SDS011;15815;46.760;19.604;2023-12-07T13:58:07;13.45;;;8.88;;
28627;SDS011;15815;46.760;19.604;2023-12-07T14:00:33;16.63;;;9.75;;
28627;SDS011;15815;46.760;19.604;2023-12-07T14:02:58;15.75;;;9.10;;
28627;SDS011;15815;46.760;19.604;2023-12-07T14:05:24;17.83;;;10.35;;
28627;SDS011;15815;46.760;19.604;2023-12-07T14:07:51;15.15;;;9.32;;
28627;SDS011;15815;46.760;19.604;2023-12-07T14:10:16;14.48;;;9.32;;
28627;SDS011;15815;46.760;19.604;2023-12-07T14:12:42;16.52;;;9.43;;
28627;SDS011;15815;46.760;19.604;2023-12-07T14:15:08;15.27;;;9.13;;
28627;SDS011;15815;46.760;19.604;2023-12-07T14:17:33;19.00;;;10.77;;
28627;SDS011;15815;46.760;19.604;2023-12-07T14:19:59;15.05;;;9.27;;
28627;SDS011;15815;46.760;19.604;2023-12-07T14:22:24;15.00;;;10.20;;
28627;SDS011;15815;46.760;19.604;2023-12-07T14:24:50;18.63;;;9.82;;